createdAt,value
2019-04-12T00:01:45.619Z,7.05
2019-04-12T00:04:14.480Z,8.30
2019-04-12T00:06:40.559Z,8.23
2019-04-12T00:09:07.994Z,8.83
2019-04-12T00:11:33.784Z,7.95
2019-04-12T00:14:02.861Z,8.17
2019-04-12T00:16:28.748Z,7.08
2019-04-12T00:18:54.560Z,7.57
2019-04-12T00:21:20.347Z,8.00
2019-04-12T00:23:46.617Z,8.00
2019-04-12T00:26:15.959Z,8.70
2019-04-12T00:28:41.587Z,8.48
2019-04-12T00:31:10.193Z,8.25
2019-04-12T00:33:36.077Z,9.25
2019-04-12T00:36:02.922Z,7.83
2019-04-12T00:38:28.708Z,8.15
2019-04-12T00:41:01.856Z,9.03
2019-04-12T00:43:25.241Z,9.10
2019-04-12T00:45:53.826Z,8.17
2019-04-12T00:48:19.638Z,7.85
2019-04-12T00:50:48.595Z,7.90
2019-04-12T00:53:19.038Z,8.78
2019-04-12T00:55:44.932Z,8.95
2019-04-12T00:58:11.321Z,7.53
2019-04-12T01:00:55.955Z,8.55
2019-04-12T01:03:21.790Z,7.40
2019-04-12T01:05:48.764Z,8.60
2019-04-12T01:08:15.006Z,8.65
2019-04-12T01:10:40.911Z,8.48
2019-04-12T01:13:07.426Z,8.67
2019-04-12T01:15:33.905Z,8.35
2019-04-12T01:18:01.982Z,8.88
2019-04-12T01:20:35.801Z,7.75
2019-04-12T01:23:00.589Z,9.75
2019-04-12T01:25:26.672Z,8.90
2019-04-12T01:27:52.492Z,9.25
2019-04-12T01:30:18.307Z,8.00
2019-04-12T01:32:44.070Z,8.50
2019-04-12T01:35:09.867Z,8.20
2019-04-12T01:37:36.009Z,9.60
2019-04-12T01:40:02.306Z,9.00
2019-04-12T01:42:28.104Z,7.95
2019-04-12T01:44:54.178Z,8.73
2019-04-12T01:47:19.965Z,9.65
2019-04-12T01:49:45.785Z,7.63
2019-04-12T01:52:11.562Z,9.27
2019-04-12T01:54:37.381Z,9.20
2019-04-12T01:57:03.169Z,9.10
2019-04-12T01:59:28.995Z,8.80
2019-04-12T02:01:55.025Z,8.80
2019-04-12T02:04:21.059Z,9.88
2019-04-12T02:06:46.891Z,9.60
2019-04-12T02:09:12.957Z,9.90
2019-04-12T02:11:39.067Z,8.80
2019-04-12T02:14:04.905Z,10.00
2019-04-12T02:16:30.878Z,9.40
2019-04-12T02:18:56.929Z,8.68
2019-04-12T02:21:25.908Z,10.55
2019-04-12T02:23:51.955Z,11.03
2019-04-12T02:26:18.913Z,9.20
2019-04-12T02:28:53.332Z,9.30
2019-04-12T02:31:34.932Z,9.03
2019-04-12T02:34:00.946Z,8.28
2019-04-12T02:36:28.701Z,8.83
2019-04-12T02:38:54.730Z,9.50
2019-04-12T02:41:21.154Z,9.90
2019-04-12T02:43:47.228Z,10.05
2019-04-12T02:46:14.729Z,8.63
2019-04-12T02:48:46.801Z,9.03
2019-04-12T02:51:25.580Z,10.18
2019-04-12T02:53:53.745Z,8.90
2019-04-12T02:56:37.610Z,9.20
2019-04-12T02:59:15.181Z,10.23
2019-04-12T03:01:45.987Z,9.55
2019-04-12T03:04:19.380Z,9.68
2019-04-12T03:06:46.010Z,9.80
2019-04-12T03:09:12.913Z,10.40
2019-04-12T03:11:39.866Z,11.00
2019-04-12T03:14:06.586Z,9.48
2019-04-12T03:16:33.196Z,10.45
2019-04-12T03:19:02.651Z,10.40
2019-04-12T03:21:28.479Z,10.15
2019-04-12T03:23:54.247Z,9.40
2019-04-12T03:26:20.773Z,9.37
2019-04-12T03:29:08.354Z,9.30
2019-04-12T03:31:34.176Z,9.65
2019-04-12T03:34:00.291Z,9.60
2019-04-12T03:36:27.868Z,9.95
2019-04-12T03:38:54.160Z,11.08
2019-04-12T03:41:20.417Z,9.60
2019-04-12T03:43:46.335Z,10.95
2019-04-12T03:46:12.538Z,11.03
2019-04-12T03:48:38.525Z,9.48
2019-04-12T03:51:04.473Z,9.75
2019-04-12T03:53:30.674Z,9.00
2019-04-12T03:56:07.797Z,9.85
2019-04-12T03:58:24.278Z,11.08
2019-04-12T04:00:50.465Z,9.30
2019-04-12T04:03:16.377Z,8.85
2019-04-12T04:05:43.073Z,9.60
2019-04-12T04:08:08.890Z,9.98
2019-04-12T04:10:34.811Z,10.13
2019-04-12T04:13:00.799Z,10.40
2019-04-12T04:15:27.011Z,10.35
2019-04-12T04:17:56.027Z,10.28
2019-04-12T04:20:35.983Z,8.73
2019-04-12T04:23:09.879Z,10.18
2019-04-12T04:25:46.759Z,10.28
2019-04-12T04:28:20.623Z,10.90
2019-04-12T04:30:57.414Z,9.93
2019-04-12T04:33:23.500Z,9.43
2019-04-12T04:35:49.294Z,10.00
2019-04-12T04:38:21.734Z,9.90
2019-04-12T04:40:51.398Z,11.00
2019-04-12T04:43:17.496Z,10.23
2019-04-12T04:45:43.410Z,9.25
2019-04-12T04:48:09.488Z,10.30
2019-04-12T04:50:35.408Z,9.53
2019-04-12T04:53:01.502Z,10.03
2019-04-12T04:55:27.500Z,11.00
2019-04-12T04:57:53.303Z,10.18
2019-04-12T05:00:19.291Z,10.80
2019-04-12T05:02:45.129Z,9.70
2019-04-12T05:05:11.358Z,10.43
2019-04-12T05:07:37.422Z,10.08
2019-04-12T05:10:05.123Z,9.95
2019-04-12T05:12:30.902Z,9.78
2019-04-12T05:14:56.829Z,10.60
2019-04-12T05:17:22.742Z,10.43
2019-04-12T05:19:48.849Z,10.43
2019-04-12T05:22:14.859Z,9.40
2019-04-12T05:24:40.962Z,10.60
2019-04-12T05:27:06.974Z,11.55
2019-04-12T05:29:33.075Z,10.75
2019-04-12T05:31:58.977Z,10.03
2019-04-12T05:34:25.003Z,9.23
2019-04-12T05:36:51.049Z,37.55
2019-04-12T05:39:17.111Z,11.08
2019-04-12T05:41:42.895Z,9.85
2019-04-12T05:44:10.608Z,9.77
2019-04-12T05:46:38.547Z,10.50
2019-04-12T05:49:09.250Z,10.65
2019-04-12T05:51:35.092Z,10.13
2019-04-12T05:54:02.298Z,9.20
2019-04-12T05:56:28.633Z,15.13
2019-04-12T05:58:59.396Z,9.77
2019-04-12T06:01:36.523Z,9.90
2019-04-12T06:04:02.736Z,12.05
2019-04-12T06:06:32.178Z,12.50
2019-04-12T06:08:56.346Z,10.35
2019-04-12T06:11:22.484Z,12.40
2019-04-12T06:13:49.071Z,11.08
2019-04-12T06:16:14.894Z,10.03
2019-04-12T06:18:42.723Z,14.80
2019-04-12T06:21:22.602Z,10.75
2019-04-12T06:23:48.413Z,10.82
2019-04-12T06:26:16.134Z,10.73
2019-04-12T06:28:41.953Z,9.55
2019-04-12T06:31:07.893Z,9.67
2019-04-12T06:33:33.704Z,9.50
2019-04-12T06:35:59.632Z,9.53
2019-04-12T06:38:25.611Z,10.30
2019-04-12T06:40:51.446Z,11.33
2019-04-12T06:43:17.377Z,10.23
2019-04-12T06:45:43.155Z,9.10
2019-04-12T06:48:08.937Z,10.63
2019-04-12T06:50:36.672Z,9.67
2019-04-12T06:53:02.573Z,8.88
2019-04-12T06:55:30.267Z,9.20
2019-04-12T06:57:56.069Z,10.43
2019-04-12T07:00:47.989Z,10.77
2019-04-12T07:03:18.444Z,10.10
2019-04-12T07:05:44.229Z,8.93
2019-04-12T07:08:10.119Z,9.27
2019-04-12T07:10:36.331Z,10.80
2019-04-12T07:13:02.429Z,10.08
2019-04-12T07:15:28.523Z,10.65
2019-04-12T07:17:54.346Z,10.50
2019-04-12T07:20:23.462Z,10.07
2019-04-12T07:22:49.256Z,10.32
2019-04-12T07:25:16.795Z,9.93
2019-04-12T07:27:42.591Z,9.58
2019-04-12T07:30:13.576Z,10.30
2019-04-12T07:32:39.400Z,10.50
2019-04-12T07:35:07.959Z,10.40
2019-04-12T07:37:33.772Z,11.05
2019-04-12T07:39:59.587Z,10.50
2019-04-12T07:42:25.401Z,9.57
2019-04-12T07:44:51.657Z,9.70
2019-04-12T07:47:17.451Z,10.23
2019-04-12T07:49:43.559Z,10.13
2019-04-12T07:52:22.795Z,9.38
2019-04-12T07:54:59.800Z,10.60
2019-04-12T07:57:47.148Z,10.08
2019-04-12T08:00:28.806Z,10.88
2019-04-12T08:02:59.283Z,10.43
2019-04-12T08:05:35.945Z,10.75
2019-04-12T08:10:49.230Z,10.28
2019-04-12T08:13:15.039Z,10.50
2019-04-12T08:15:40.836Z,10.40
2019-04-12T08:18:06.664Z,10.60
2019-04-12T08:20:33.614Z,10.10
2019-04-12T08:22:59.731Z,12.25
2019-04-12T08:25:25.562Z,10.93
2019-04-12T08:27:58.383Z,11.37
2019-04-12T08:30:19.404Z,11.93
2019-04-12T08:32:45.217Z,10.63
2019-04-12T08:35:11.814Z,11.17
2019-04-12T08:37:39.861Z,12.28
2019-04-12T08:40:06.397Z,10.50
2019-04-12T08:42:32.227Z,11.18
2019-04-12T08:44:57.997Z,13.97
2019-04-12T08:47:23.797Z,11.90
2019-04-12T08:49:49.858Z,9.97
2019-04-12T08:52:15.813Z,10.72
2019-04-12T08:54:44.849Z,10.80
2019-04-12T08:57:10.639Z,11.00
2019-04-12T08:59:39.596Z,9.70
2019-04-12T09:02:05.374Z,10.58
2019-04-12T09:04:34.010Z,11.33
2019-04-12T09:07:00.082Z,10.65
2019-04-12T09:09:26.111Z,10.15
2019-04-12T09:11:52.112Z,10.38
2019-04-12T09:14:17.942Z,10.70
2019-04-12T09:16:43.743Z,10.60
2019-04-12T09:19:26.915Z,11.40
2019-04-12T09:21:54.626Z,10.78
2019-04-12T09:24:22.540Z,11.35
2019-04-12T09:26:48.336Z,11.63
2019-04-12T09:29:14.577Z,10.10
2019-04-12T09:31:40.685Z,10.48
2019-04-12T09:34:16.375Z,11.30
2019-04-12T09:36:34.291Z,12.05
2019-04-12T09:39:00.302Z,11.67
2019-04-12T09:41:26.394Z,11.67
2019-04-12T09:43:52.243Z,12.05
2019-04-12T09:46:18.341Z,11.80
2019-04-12T09:48:44.134Z,12.00
2019-04-12T09:51:09.967Z,11.10
2019-04-12T09:53:38.465Z,11.30
2019-04-12T09:56:03.884Z,10.85
2019-04-12T09:58:37.135Z,9.83
2019-04-12T10:00:57.662Z,10.65
2019-04-12T10:03:23.480Z,10.63
2019-04-12T10:05:49.552Z,11.13
2019-04-12T10:08:15.397Z,10.85
2019-04-12T10:10:41.209Z,11.33
2019-04-12T10:13:10.024Z,11.47
2019-04-12T10:15:35.811Z,11.17
2019-04-12T10:18:04.644Z,10.60
2019-04-12T10:20:30.464Z,12.80
2019-04-12T10:22:56.571Z,13.27
2019-04-12T10:25:22.665Z,12.30
2019-04-12T10:27:50.317Z,11.50
2019-04-12T10:30:16.488Z,11.20
2019-04-12T10:32:42.587Z,11.10
2019-04-12T10:35:11.546Z,12.10
2019-04-12T10:37:37.543Z,12.80
2019-04-12T10:40:06.561Z,11.50
2019-04-12T10:42:32.385Z,12.47
2019-04-12T10:45:00.464Z,11.17
2019-04-12T10:47:31.477Z,12.97
2019-04-12T10:50:19.102Z,21.27
2019-04-12T10:52:49.777Z,13.17
2019-04-12T10:55:17.511Z,11.23
2019-04-12T10:57:43.561Z,11.83
2019-04-12T11:00:10.590Z,13.27
2019-04-12T11:02:36.382Z,12.63
2019-04-12T11:05:04.332Z,14.10
2019-04-12T11:07:30.125Z,12.00
2019-04-12T11:09:55.935Z,12.37
2019-04-12T11:12:22.019Z,12.60
2019-04-12T11:14:47.813Z,11.60
2019-04-12T11:17:13.644Z,13.33
2019-04-12T11:19:39.738Z,14.37
2019-04-12T11:22:05.760Z,12.40
2019-04-12T11:24:31.833Z,12.57
2019-04-12T11:26:57.661Z,12.90
2019-04-12T11:29:23.767Z,11.77
2019-04-12T11:31:49.564Z,11.63
2019-04-12T11:34:15.348Z,14.07
2019-04-12T11:36:41.182Z,24.03
2019-04-12T11:39:06.983Z,41.27
2019-04-12T11:41:33.130Z,13.20
2019-04-12T11:43:58.992Z,13.57
2019-04-12T11:46:36.816Z,12.83
2019-04-12T11:48:52.762Z,12.90
2019-04-12T11:51:18.548Z,12.70
2019-04-12T11:53:44.636Z,14.67
2019-04-12T11:56:10.446Z,13.70
2019-04-12T11:58:47.732Z,14.57
2019-04-12T12:01:24.324Z,14.00
2019-04-12T12:04:10.246Z,13.17
2019-04-12T12:06:56.799Z,13.30
2019-04-12T12:09:33.224Z,13.30
2019-04-12T12:12:00.935Z,14.70
2019-04-12T12:14:31.684Z,12.90
2019-04-12T12:17:08.523Z,13.50
2019-04-12T12:19:34.720Z,14.47
2019-04-12T12:22:00.516Z,13.30
2019-04-12T12:24:26.324Z,12.77
2019-04-12T12:26:52.130Z,12.77
2019-04-12T12:29:18.230Z,14.40
2019-04-12T12:31:44.022Z,15.43
2019-04-12T12:34:10.121Z,13.00
2019-04-12T12:36:36.179Z,13.30
2019-04-12T12:39:05.290Z,13.80
2019-04-12T12:41:31.316Z,14.00
2019-04-12T12:43:57.129Z,13.83
2019-04-12T12:46:23.348Z,14.00
2019-04-12T12:48:49.144Z,14.30
2019-04-12T12:51:14.939Z,14.23
2019-04-12T12:53:40.745Z,15.83
2019-04-12T12:56:06.833Z,14.93
2019-04-12T12:58:32.884Z,13.77
2019-04-12T13:00:59.328Z,15.30
2019-04-12T13:03:25.141Z,13.87
2019-04-12T13:05:54.048Z,13.93
2019-04-12T13:08:19.849Z,14.80
2019-04-12T13:10:45.941Z,13.70
2019-04-12T13:13:12.045Z,14.13
2019-04-12T13:15:37.827Z,39.20
2019-04-12T13:18:07.113Z,16.83
2019-04-12T13:20:33.222Z,14.57
2019-04-12T13:23:00.521Z,15.00
2019-04-12T13:25:26.458Z,14.77
2019-04-12T13:27:56.955Z,12.90
2019-04-12T13:30:31.625Z,14.10
2019-04-12T13:32:59.627Z,15.23
2019-04-12T13:35:33.183Z,15.47
2019-04-12T13:38:06.682Z,15.37
2019-04-12T13:40:40.281Z,14.40
2019-04-12T13:43:08.298Z,15.20
2019-04-12T13:45:34.208Z,14.17
2019-04-12T13:48:00.005Z,15.17
2019-04-12T13:50:26.112Z,14.90
2019-04-12T13:52:51.929Z,13.60
2019-04-12T13:55:18.028Z,15.60
2019-04-12T13:57:43.815Z,15.23
2019-04-12T14:00:18.977Z,16.40
2019-04-12T14:02:39.020Z,15.37
2019-04-12T14:05:05.533Z,13.80
2019-04-12T14:07:31.619Z,14.47
2019-04-12T14:09:57.404Z,15.80
2019-04-12T14:12:23.210Z,16.23
2019-04-12T14:14:49.290Z,14.20
2019-04-12T14:17:15.095Z,15.13
2019-04-12T14:19:40.906Z,14.90
2019-04-12T14:22:06.963Z,14.93
2019-04-12T14:24:32.776Z,13.50
2019-04-12T14:26:58.584Z,15.43
2019-04-12T14:29:24.381Z,16.50
2019-04-12T14:31:52.088Z,14.07
2019-04-12T14:34:37.927Z,15.97
2019-04-12T14:37:08.731Z,14.80
2019-04-12T14:39:35.175Z,15.30
2019-04-12T14:42:00.975Z,15.90
2019-04-12T14:44:28.710Z,15.30
2019-04-12T14:46:59.525Z,15.50
2019-04-12T14:49:25.621Z,14.70
2019-04-12T14:51:51.709Z,15.10
2019-04-12T14:54:17.536Z,14.97
2019-04-12T14:56:43.607Z,14.77
2019-04-12T14:59:09.403Z,14.47
2019-04-12T15:01:35.224Z,16.80
2019-04-12T15:04:01.056Z,14.63
2019-04-12T15:06:26.841Z,15.17
2019-04-12T15:08:53.025Z,16.43
2019-04-12T15:11:19.197Z,15.43
2019-04-12T15:13:45.017Z,15.60
2019-04-12T15:16:10.791Z,14.37
2019-04-12T15:18:36.578Z,14.70
2019-04-12T15:21:02.601Z,15.23
2019-04-12T15:23:28.399Z,14.57
2019-04-12T15:25:54.548Z,16.37
2019-04-12T15:28:20.600Z,14.70
2019-04-12T15:30:57.681Z,15.53
2019-04-12T15:33:14.493Z,15.63
2019-04-12T15:35:40.303Z,15.53
2019-04-12T15:38:06.125Z,14.83
2019-04-12T15:40:32.419Z,14.37
2019-04-12T15:43:00.859Z,15.18
2019-04-12T15:45:26.216Z,14.40
2019-04-12T15:47:51.995Z,15.45
2019-04-12T15:50:18.076Z,15.57
2019-04-12T15:52:44.125Z,13.90
2019-04-12T15:55:09.953Z,15.45
2019-04-12T15:57:35.769Z,14.90
2019-04-12T16:00:03.291Z,15.60
2019-04-12T16:02:31.315Z,14.58
2019-04-12T16:04:57.238Z,17.12
2019-04-12T16:07:33.079Z,14.60
2019-04-12T16:10:00.481Z,16.17
2019-04-12T16:12:51.334Z,14.73
2019-04-12T16:15:24.012Z,15.10
2019-04-12T16:17:57.006Z,14.28
2019-04-12T16:20:22.819Z,16.02
2019-04-12T16:22:48.894Z,15.70
2019-04-12T16:25:14.699Z,15.58
2019-04-12T16:28:01.721Z,15.13
2019-04-12T16:30:38.751Z,16.45
2019-04-12T16:33:21.687Z,15.98
2019-04-12T16:35:52.220Z,15.83
2019-04-12T16:38:20.327Z,17.20
2019-04-12T16:40:46.188Z,15.95
2019-04-12T16:43:12.447Z,15.97
2019-04-12T16:45:38.267Z,15.50
2019-04-12T16:48:04.381Z,15.00
2019-04-12T16:50:30.294Z,15.10
2019-04-12T16:52:56.083Z,16.13
2019-04-12T16:55:21.914Z,13.90
2019-04-12T16:57:47.714Z,17.67
2019-04-12T17:00:13.935Z,15.03
2019-04-12T17:02:39.752Z,15.75
2019-04-12T17:05:05.948Z,13.60
2019-04-12T17:07:31.746Z,14.18
2019-04-12T17:09:57.526Z,17.63
2019-04-12T17:12:23.615Z,16.27
2019-04-12T17:14:49.436Z,16.55
2019-04-12T17:17:15.257Z,15.30
2019-04-12T17:19:41.055Z,15.00
2019-04-12T17:22:07.142Z,14.03
2019-04-12T17:24:33.014Z,13.48
2019-04-12T17:26:58.875Z,13.13
2019-04-12T17:29:24.674Z,14.90
2019-04-12T17:31:50.471Z,16.33
2019-04-12T17:34:16.557Z,15.60
2019-04-12T17:36:42.365Z,15.50
2019-04-12T17:39:08.452Z,14.57
2019-04-12T17:41:34.589Z,15.30
2019-04-12T17:44:00.441Z,15.90
2019-04-12T17:46:26.227Z,15.37
2019-04-12T17:48:54.227Z,14.43
2019-04-12T17:51:21.955Z,14.90
2019-04-12T17:53:49.696Z,14.93
2019-04-12T17:56:27.054Z,17.12
2019-04-12T17:58:45.449Z,16.82
2019-04-12T18:01:25.412Z,15.37
2019-04-12T18:03:53.398Z,15.85
2019-04-12T18:06:19.573Z,14.38
2019-04-12T18:08:45.630Z,15.15
2019-04-12T18:11:13.340Z,14.03
2019-04-12T18:13:39.152Z,15.05
2019-04-12T18:16:04.966Z,13.63
2019-04-12T18:18:30.796Z,15.33
2019-04-12T18:20:56.577Z,15.70
2019-04-12T18:23:22.386Z,14.80
2019-04-12T18:25:48.434Z,15.77
2019-04-12T18:28:14.528Z,14.35
2019-04-12T18:30:40.445Z,14.00
2019-04-12T18:33:06.630Z,15.37
2019-04-12T18:35:32.671Z,14.63
2019-04-12T18:37:58.480Z,14.30
2019-04-12T18:40:24.571Z,15.00
2019-04-12T18:42:50.406Z,15.03
2019-04-12T18:45:16.502Z,14.10
2019-04-12T18:47:42.588Z,13.35
2019-04-12T18:50:08.505Z,15.38
2019-04-12T18:52:43.495Z,16.00
2019-04-12T18:55:09.836Z,14.13
2019-04-12T18:57:35.674Z,16.23
2019-04-12T19:00:02.397Z,15.23
2019-04-12T19:02:29.614Z,14.93
2019-04-12T19:04:55.703Z,16.70
2019-04-12T19:07:21.818Z,14.18
2019-04-12T19:09:47.973Z,15.40
2019-04-12T19:12:13.906Z,15.93
2019-04-12T19:14:39.700Z,15.23
2019-04-12T19:17:07.694Z,15.63
2019-04-12T19:19:33.489Z,15.68
2019-04-12T19:21:59.307Z,15.70
2019-04-12T19:24:27.751Z,15.50
2019-04-12T19:26:53.714Z,14.63
2019-04-12T19:29:22.604Z,14.80
2019-04-12T19:31:59.027Z,16.45
2019-04-12T19:34:32.880Z,14.80
2019-04-12T19:37:03.770Z,14.25
2019-04-12T19:39:31.496Z,14.53
2019-04-12T19:41:59.215Z,15.55
2019-04-12T19:44:25.053Z,15.08
2019-04-12T19:46:51.147Z,16.80
2019-04-12T19:49:16.946Z,14.60
2019-04-12T19:51:42.738Z,15.93
2019-04-12T19:54:08.546Z,16.00
2019-04-12T19:56:34.374Z,13.83
2019-04-12T19:59:00.159Z,15.60
2019-04-12T20:01:26.216Z,15.33
2019-04-12T20:03:52.037Z,16.02
2019-04-12T20:06:17.860Z,15.40
2019-04-12T20:08:43.669Z,15.40
2019-04-12T20:11:09.478Z,15.20
2019-04-12T20:13:35.315Z,15.70
2019-04-12T20:16:01.379Z,15.37
2019-04-12T20:18:27.438Z,15.90
2019-04-12T20:20:53.230Z,15.60
2019-04-12T20:23:19.039Z,15.00
2019-04-12T20:25:45.119Z,14.00
2019-04-12T20:28:11.214Z,15.88
2019-04-12T20:30:37.022Z,14.45
2019-04-12T20:33:05.638Z,15.03
2019-04-12T20:35:31.461Z,14.80
2019-04-12T20:38:00.065Z,15.73
2019-04-12T20:40:25.844Z,14.80
2019-04-12T20:42:55.516Z,17.37
2019-04-12T20:45:21.585Z,15.28
2019-04-12T20:47:47.417Z,15.18
2019-04-12T20:50:13.245Z,17.00
2019-04-12T20:52:39.047Z,15.70
2019-04-12T20:55:07.952Z,17.07
2019-04-12T20:57:33.786Z,15.88
2019-04-12T20:59:59.630Z,15.53
2019-04-12T21:02:31.524Z,15.40
2019-04-12T21:04:56.249Z,15.40
2019-04-12T21:07:22.062Z,16.77
2019-04-12T21:09:50.656Z,15.60
2019-04-12T21:12:16.440Z,14.98
2019-04-12T21:14:45.006Z,15.00
2019-04-12T21:17:10.824Z,15.80
2019-04-12T21:19:39.378Z,14.17
2019-04-12T21:22:05.199Z,14.53
2019-04-12T21:24:31.069Z,14.27
2019-04-12T21:26:57.108Z,14.77
2019-04-12T21:29:22.906Z,13.28
2019-04-12T21:31:51.895Z,13.17
2019-04-12T21:34:17.704Z,12.23
2019-04-12T21:36:46.642Z,12.70
2019-04-12T21:39:12.472Z,13.58
2019-04-12T21:41:41.305Z,13.80
2019-04-12T21:44:11.506Z,12.60
2019-04-12T21:46:35.705Z,13.88
2019-04-12T21:49:01.537Z,12.80
2019-04-12T21:51:30.798Z,12.90
2019-04-12T21:53:57.874Z,13.62
2019-04-12T21:56:48.577Z,12.00
2019-04-12T21:59:14.931Z,11.90
2019-04-12T22:01:41.189Z,12.78
2019-04-12T22:04:07.006Z,12.15
2019-04-12T22:06:33.070Z,13.17
2019-04-12T22:08:58.876Z,11.65
2019-04-12T22:11:24.972Z,11.10
2019-04-12T22:13:50.790Z,12.00
2019-04-12T22:16:16.875Z,10.70
2019-04-12T22:18:42.934Z,9.70
2019-04-12T22:21:08.851Z,10.85
2019-04-12T22:23:34.917Z,10.50
2019-04-12T22:26:00.737Z,10.40
2019-04-12T22:28:26.524Z,10.27
2019-04-12T22:30:54.166Z,10.43
2019-04-12T22:33:20.036Z,9.73
2019-04-12T22:35:46.109Z,10.13
2019-04-12T22:38:12.017Z,8.95
2019-04-12T22:40:37.784Z,9.77
2019-04-12T22:43:03.673Z,9.43
2019-04-12T22:45:29.501Z,10.33
2019-04-12T22:47:55.317Z,9.90
2019-04-12T22:50:21.400Z,10.30
2019-04-12T22:52:47.210Z,10.40
2019-04-12T22:55:23.821Z,10.33
2019-04-12T22:57:49.628Z,10.25
2019-04-12T23:00:15.690Z,10.13
2019-04-12T23:02:41.461Z,10.20
2019-04-12T23:05:07.250Z,9.20
2019-04-12T23:07:33.076Z,9.70
2019-04-12T23:09:59.291Z,9.63
2019-04-12T23:12:25.104Z,10.10
2019-04-12T23:14:51.147Z,10.10
2019-04-12T23:17:17.171Z,10.63
2019-04-12T23:19:42.959Z,9.70
2019-04-12T23:22:09.072Z,9.00
2019-04-12T23:24:34.885Z,8.55
2019-04-12T23:27:03.630Z,9.97
2019-04-12T23:29:29.657Z,9.30
2019-04-12T23:32:02.954Z,10.13
2019-04-12T23:34:30.662Z,9.35
2019-04-12T23:36:56.977Z,9.70
2019-04-12T23:39:22.781Z,9.58
2019-04-12T23:41:48.622Z,9.37
2019-04-12T23:44:14.779Z,9.17
2019-04-12T23:46:40.583Z,8.93
2019-04-12T23:49:06.640Z,10.03
2019-04-12T23:51:32.690Z,9.90
2019-04-12T23:53:58.777Z,9.93
2019-04-12T23:56:24.562Z,8.80
2019-04-12T23:58:53.234Z,8.50
